createdAt,value
2023-01-26T00:02:17.024Z,101689.09
2023-01-26T00:05:21.550Z,101691.56
2023-01-26T00:08:26.052Z,101746.44
2023-01-26T00:11:31.268Z,101757.25
2023-01-26T00:14:50.614Z,101771.56
2023-01-26T00:17:55.106Z,101690.28
2023-01-26T00:21:01.455Z,101751.41
2023-01-26T00:24:06.558Z,101762.91
2023-01-26T00:27:11.182Z,101721.75
2023-01-26T00:30:15.802Z,101758.91
2023-01-26T00:33:20.214Z,101774.75
2023-01-26T00:36:25.250Z,101766.03
2023-01-26T00:39:29.726Z,101784.16
2023-01-26T00:42:33.700Z,101683.41
2023-01-26T00:45:38.279Z,101767.00
2023-01-26T00:48:42.614Z,101729.22
2023-01-26T00:51:46.264Z,101775.38
2023-01-26T00:54:50.740Z,101761.78
2023-01-26T00:57:54.302Z,101781.94
2023-01-26T01:01:00.175Z,101775.38
2023-01-26T01:04:04.988Z,101763.97
2023-01-26T01:07:12.351Z,101777.38
2023-01-26T01:10:17.337Z,101756.03
2023-01-26T01:13:21.415Z,101778.16
2023-01-26T01:16:25.362Z,101753.34
2023-01-26T01:19:29.789Z,101764.94
2023-01-26T01:22:35.682Z,101763.13
2023-01-26T01:25:40.568Z,101732.19
2023-01-26T01:28:58.972Z,101765.16
2023-01-26T01:32:06.132Z,101722.91
2023-01-26T01:35:10.620Z,101755.84
2023-01-26T01:38:14.737Z,101756.81
2023-01-26T01:41:21.645Z,101740.41
2023-01-26T01:44:27.360Z,101727.31
2023-01-26T01:47:32.197Z,101712.81
2023-01-26T01:50:40.714Z,101707.63
2023-01-26T01:53:49.862Z,101760.41
2023-01-26T01:56:57.336Z,101770.16
2023-01-26T02:00:11.141Z,101761.66
2023-01-26T02:03:22.284Z,101769.53
2023-01-26T02:06:35.003Z,101742.72
2023-01-26T02:09:54.348Z,101741.69
2023-01-26T02:13:01.628Z,101767.63
2023-01-26T02:16:06.179Z,101727.63
2023-01-26T02:19:21.623Z,101755.03
2023-01-26T02:22:44.580Z,101756.69
2023-01-26T02:25:54.449Z,101758.22
2023-01-26T02:29:00.905Z,101760.09
2023-01-26T02:32:05.394Z,101743.31
2023-01-26T02:35:09.766Z,101731.91
2023-01-26T02:38:14.682Z,101750.53
2023-01-26T02:41:39.476Z,101739.88
2023-01-26T02:44:45.295Z,101712.13
2023-01-26T02:47:49.492Z,101746.53
2023-01-26T02:50:53.326Z,101739.25
2023-01-26T02:53:57.548Z,101727.44
2023-01-26T02:57:01.657Z,101732.84
2023-01-26T03:00:30.564Z,101708.38
2023-01-26T03:03:43.303Z,101721.63
2023-01-26T03:06:52.385Z,101716.78
2023-01-26T03:09:56.727Z,101713.94
2023-01-26T03:13:05.365Z,101717.22
2023-01-26T03:16:14.296Z,101695.63
2023-01-26T03:19:39.223Z,101679.25
2023-01-26T03:23:16.939Z,101702.59
2023-01-26T03:26:45.339Z,101677.66
2023-01-26T03:29:50.422Z,101711.06
2023-01-26T03:33:00.439Z,101681.88
2023-01-26T03:36:05.039Z,101687.28
2023-01-26T03:39:08.914Z,101707.69
2023-01-26T03:42:31.341Z,101711.25
2023-01-26T03:45:55.453Z,101679.97
2023-01-26T03:49:22.170Z,101678.53
2023-01-26T03:52:50.456Z,101672.16
2023-01-26T03:56:17.453Z,101664.94
2023-01-26T03:59:38.451Z,101632.47
2023-01-26T04:03:05.984Z,101695.06
2023-01-26T04:06:30.768Z,101669.84
2023-01-26T04:09:37.901Z,101611.66
2023-01-26T04:12:44.635Z,101660.06
2023-01-26T04:16:15.496Z,101634.16
2023-01-26T04:19:38.010Z,101690.91
2023-01-26T04:22:46.391Z,101685.25
2023-01-26T04:25:53.349Z,101638.56
2023-01-26T04:28:58.019Z,101653.66
2023-01-26T04:32:02.121Z,101668.44
2023-01-26T04:35:08.911Z,101649.91
2023-01-26T04:38:14.382Z,101666.72
2023-01-26T04:41:20.347Z,101656.88
2023-01-26T04:44:30.860Z,101686.78
2023-01-26T04:47:35.544Z,101693.50
2023-01-26T04:50:40.794Z,101699.31
2023-01-26T04:53:45.741Z,101694.59
2023-01-26T04:56:50.441Z,101701.19
2023-01-26T04:59:58.163Z,101694.84
2023-01-26T05:03:05.899Z,101675.06
2023-01-26T05:06:11.717Z,101689.91
2023-01-26T05:09:17.232Z,101693.44
2023-01-26T05:12:35.338Z,101693.53
2023-01-26T05:15:57.846Z,101669.53
2023-01-26T05:19:20.534Z,101501.66
2023-01-26T05:22:50.968Z,101668.31
2023-01-26T05:26:10.237Z,101691.72
2023-01-26T05:29:38.834Z,101651.63
2023-01-26T05:32:43.968Z,101696.75
2023-01-26T05:35:53.933Z,101703.84
2023-01-26T05:38:57.985Z,101692.94
2023-01-26T05:42:03.922Z,101720.25
2023-01-26T05:45:31.566Z,101715.09
2023-01-26T05:48:38.281Z,101702.84
2023-01-26T05:51:43.834Z,101685.19
2023-01-26T05:54:51.115Z,101708.34
2023-01-26T05:57:55.496Z,101683.28
2023-01-26T06:01:04.728Z,101716.19
2023-01-26T06:04:17.250Z,101728.25
2023-01-26T06:07:28.939Z,101730.94
2023-01-26T06:10:45.496Z,101719.38
2023-01-26T06:14:09.837Z,101738.59
2023-01-26T06:17:19.370Z,101710.59
2023-01-26T06:20:27.431Z,101748.00
2023-01-26T06:23:35.550Z,101737.84
2023-01-26T06:26:40.195Z,101727.63
2023-01-26T06:29:47.288Z,101736.34
2023-01-26T06:32:51.529Z,101720.69
2023-01-26T06:35:56.761Z,101725.38
2023-01-26T06:39:01.356Z,101742.81
2023-01-26T06:42:05.962Z,101729.59
2023-01-26T06:45:10.441Z,101754.94
2023-01-26T06:48:15.662Z,101749.34
2023-01-26T06:51:23.741Z,101761.50
2023-01-26T06:54:28.331Z,101725.03
2023-01-26T06:57:57.896Z,101750.75
2023-01-26T07:01:28.232Z,101780.50
2023-01-26T07:04:32.599Z,101745.38
2023-01-26T07:07:37.457Z,101775.38
2023-01-26T07:10:42.046Z,101707.09
2023-01-26T07:13:46.652Z,101750.56
2023-01-26T07:16:51.229Z,101732.72
2023-01-26T07:19:55.664Z,101759.34
2023-01-26T07:23:03.095Z,101773.63
2023-01-26T07:26:08.320Z,101791.66
2023-01-26T07:29:12.834Z,101786.22
2023-01-26T07:32:17.175Z,101782.44
2023-01-26T07:35:21.715Z,101773.59
2023-01-26T07:38:27.171Z,101759.00
2023-01-26T07:41:31.147Z,101788.09
2023-01-26T07:44:35.837Z,101787.31
2023-01-26T07:47:40.076Z,101778.88
2023-01-26T07:50:45.934Z,101788.63
2023-01-26T07:53:50.845Z,101744.31
2023-01-26T07:56:55.788Z,101747.34
2023-01-26T07:59:59.340Z,101789.00
2023-01-26T08:03:03.994Z,101775.63
2023-01-26T08:06:12.047Z,101796.97
2023-01-26T08:09:18.145Z,101802.72
2023-01-26T08:12:21.919Z,101803.28
2023-01-26T08:15:27.075Z,101806.84
2023-01-26T08:18:32.072Z,101805.81
2023-01-26T08:21:36.133Z,101808.63
2023-01-26T08:24:41.854Z,101804.47
2023-01-26T08:27:46.687Z,101789.59
2023-01-26T08:30:53.549Z,101778.88
2023-01-26T08:33:58.272Z,101809.59
2023-01-26T08:37:03.057Z,101764.88
2023-01-26T08:40:11.892Z,101793.28
2023-01-26T08:43:16.037Z,101726.13
2023-01-26T08:46:22.383Z,101807.50
2023-01-26T08:49:26.630Z,101825.03
2023-01-26T08:52:31.050Z,101842.16
2023-01-26T08:55:36.591Z,101831.59
2023-01-26T08:58:41.731Z,101830.38
2023-01-26T09:01:46.515Z,101806.53
2023-01-26T09:04:50.582Z,101828.31
2023-01-26T09:07:57.021Z,101830.28
2023-01-26T09:11:01.612Z,101774.00
2023-01-26T09:14:05.804Z,101775.03
2023-01-26T09:17:10.226Z,101770.22
2023-01-26T09:20:18.303Z,101814.81
2023-01-26T09:23:22.735Z,101828.75
2023-01-26T09:26:26.850Z,101804.44
2023-01-26T09:29:30.979Z,101780.50
2023-01-26T09:32:35.755Z,101817.78
2023-01-26T09:35:41.372Z,101851.81
2023-01-26T09:38:45.271Z,101849.00
2023-01-26T09:42:18.351Z,101849.84
2023-01-26T09:45:39.378Z,101847.75
2023-01-26T09:48:55.446Z,101841.88
2023-01-26T09:52:11.516Z,101862.50
2023-01-26T09:55:20.566Z,101820.13
2023-01-26T09:58:41.012Z,101745.75
2023-01-26T10:01:47.256Z,101851.28
2023-01-26T10:04:57.419Z,101836.53
2023-01-26T10:08:01.379Z,101795.44
2023-01-26T10:11:16.234Z,101827.47
2023-01-26T10:14:20.401Z,101846.94
2023-01-26T10:17:36.935Z,101848.59
2023-01-26T10:20:46.417Z,101843.06
2023-01-26T10:23:50.943Z,101854.22
2023-01-26T10:26:58.977Z,101853.22
2023-01-26T10:30:03.048Z,101811.44
2023-01-26T10:33:37.547Z,101849.31
2023-01-26T10:36:45.366Z,101818.34
2023-01-26T10:40:03.071Z,101854.50
2023-01-26T10:43:20.203Z,101821.41
2023-01-26T10:46:36.880Z,101854.44
2023-01-26T10:49:46.922Z,101844.06
2023-01-26T10:53:06.237Z,101824.22
2023-01-26T10:56:18.041Z,101829.00
2023-01-26T10:59:36.032Z,101848.84
2023-01-26T11:02:52.537Z,101831.97
2023-01-26T11:06:28.499Z,101854.13
2023-01-26T11:09:33.043Z,101822.06
2023-01-26T11:12:37.185Z,101854.53
2023-01-26T11:15:48.819Z,101842.38
2023-01-26T11:19:08.261Z,101851.16
2023-01-26T11:22:40.264Z,101848.69
2023-01-26T11:26:10.699Z,101825.31
2023-01-26T11:29:33.378Z,101849.28
2023-01-26T11:32:47.999Z,101855.66
2023-01-26T11:36:20.101Z,101855.84
2023-01-26T11:39:54.626Z,101850.09
2023-01-26T11:43:23.322Z,101844.84
2023-01-26T11:47:06.738Z,101852.41
2023-01-26T11:50:25.672Z,101847.47
2023-01-26T11:53:54.264Z,101857.22
2023-01-26T11:57:30.944Z,101844.53
2023-01-26T12:01:03.597Z,101842.50
2023-01-26T12:04:13.953Z,101810.97
2023-01-26T12:07:26.136Z,101803.28
2023-01-26T12:10:49.755Z,101814.34
2023-01-26T12:14:16.144Z,101775.91
2023-01-26T12:17:32.355Z,101829.34
2023-01-26T12:20:42.466Z,101789.22
2023-01-26T12:23:55.917Z,101817.75
2023-01-26T12:27:03.778Z,101749.16
2023-01-26T12:30:28.911Z,101811.00
2023-01-26T12:33:36.801Z,101796.50
2023-01-26T12:37:15.633Z,101806.38
2023-01-26T12:40:36.073Z,101808.22
2023-01-26T12:43:43.918Z,101813.34
2023-01-26T12:47:01.040Z,101810.53
2023-01-26T12:50:28.663Z,101813.31
2023-01-26T12:53:59.555Z,101795.81
2023-01-26T12:57:10.369Z,101775.91
2023-01-26T13:00:36.880Z,101816.38
2023-01-26T13:04:06.401Z,101823.84
2023-01-26T13:07:32.822Z,101819.66
2023-01-26T13:10:51.248Z,101830.16
2023-01-26T13:13:57.938Z,101816.16
2023-01-26T13:17:17.623Z,101814.41
2023-01-26T13:20:42.315Z,101774.19
2023-01-26T13:23:46.908Z,101794.44
2023-01-26T13:26:53.582Z,101804.41
2023-01-26T13:29:58.101Z,101770.94
2023-01-26T13:33:26.776Z,101798.97
2023-01-26T13:36:37.351Z,101803.81
2023-01-26T13:39:45.354Z,101769.16
2023-01-26T13:43:27.786Z,101791.00
2023-01-26T13:46:55.707Z,101793.03
2023-01-26T13:50:00.276Z,101800.13
2023-01-26T13:53:37.793Z,101787.22
2023-01-26T13:57:02.169Z,101731.88
2023-01-26T14:00:12.674Z,101772.28
2023-01-26T14:03:26.897Z,101785.31
2023-01-26T14:06:33.089Z,101770.03
2023-01-26T14:09:51.521Z,101749.06
2023-01-26T14:12:57.642Z,101683.56
2023-01-26T14:16:10.060Z,101638.88
2023-01-26T14:19:23.512Z,101535.19
2023-01-26T14:22:31.804Z,101722.50
2023-01-26T14:26:08.624Z,101653.53
2023-01-26T14:32:52.553Z,101719.75
2023-01-26T14:36:07.324Z,101744.69
2023-01-26T14:39:24.449Z,101712.22
2023-01-26T14:42:29.424Z,101728.66
2023-01-26T14:45:37.011Z,101734.78
2023-01-26T14:48:58.736Z,101736.28
2023-01-26T14:52:05.882Z,101711.53
2023-01-26T14:55:30.182Z,101695.28
2023-01-26T14:58:35.770Z,101724.59
2023-01-26T15:01:42.356Z,101773.78
2023-01-26T15:04:59.515Z,101734.41
2023-01-26T15:08:21.340Z,101756.53
2023-01-26T15:11:52.753Z,101759.34
2023-01-26T15:15:06.764Z,101693.63
2023-01-26T15:18:15.177Z,101753.53
2023-01-26T15:21:24.609Z,101748.28
2023-01-26T15:24:30.149Z,101611.31
2023-01-26T15:27:40.707Z,101666.59
2023-01-26T15:30:56.849Z,101656.75
2023-01-26T15:34:05.884Z,101660.44
2023-01-26T15:37:30.908Z,101740.09
2023-01-26T15:40:40.873Z,101658.31
2023-01-26T15:43:45.326Z,101705.28
2023-01-26T15:46:50.173Z,101681.25
2023-01-26T15:49:58.123Z,101709.59
2023-01-26T15:53:02.724Z,101724.25
2023-01-26T15:56:08.281Z,101703.28
2023-01-26T15:59:15.927Z,101714.78
2023-01-26T16:02:22.807Z,101744.16
2023-01-26T16:05:28.822Z,101726.69
2023-01-26T16:08:35.972Z,101718.88
2023-01-26T16:11:51.162Z,101671.63
2023-01-26T16:14:55.476Z,101706.97
2023-01-26T16:17:59.969Z,101671.28
2023-01-26T16:21:27.629Z,101728.59
2023-01-26T16:24:31.940Z,101730.84
2023-01-26T16:27:36.188Z,101692.97
2023-01-26T16:30:40.790Z,101723.28
2023-01-26T16:33:47.818Z,101712.25
2023-01-26T16:36:52.404Z,101646.84
2023-01-26T16:39:57.180Z,101648.50
2023-01-26T16:43:20.131Z,101633.59
2023-01-26T16:46:28.454Z,101676.59
2023-01-26T16:49:34.771Z,101689.97
2023-01-26T16:52:41.353Z,101710.31
2023-01-26T16:55:46.059Z,101694.91
2023-01-26T16:58:50.222Z,101735.69
2023-01-26T17:01:54.474Z,101690.72
2023-01-26T17:04:58.432Z,101718.56
2023-01-26T17:08:02.694Z,101734.78
2023-01-26T17:11:06.820Z,101748.53
2023-01-26T17:14:13.788Z,101735.72
2023-01-26T17:17:17.837Z,101716.78
2023-01-26T17:20:22.414Z,101729.75
2023-01-26T17:23:26.552Z,101722.38
2023-01-26T17:26:31.022Z,101722.72
2023-01-26T17:29:35.207Z,101710.91
2023-01-26T17:32:39.553Z,101672.53
2023-01-26T17:35:43.929Z,101689.81
2023-01-26T17:38:49.597Z,101718.50
2023-01-26T17:41:54.764Z,101715.19
2023-01-26T17:44:59.559Z,101715.72
2023-01-26T17:48:03.501Z,101718.38
2023-01-26T17:51:10.942Z,101715.03
2023-01-26T17:54:17.756Z,101711.13
2023-01-26T17:57:22.572Z,101680.31
2023-01-26T18:00:27.191Z,101671.94
2023-01-26T18:03:32.102Z,101686.41
2023-01-26T18:06:36.182Z,101683.28
2023-01-26T18:09:41.908Z,101706.81
2023-01-26T18:12:45.904Z,101677.44
2023-01-26T18:15:53.158Z,101690.53
2023-01-26T18:18:59.605Z,101703.75
2023-01-26T18:22:04.340Z,101674.41
2023-01-26T18:25:09.541Z,101648.88
2023-01-26T18:28:17.897Z,101674.78
2023-01-26T18:31:32.442Z,101672.47
2023-01-26T18:34:37.127Z,101633.72
2023-01-26T18:37:44.143Z,101610.28
2023-01-26T18:40:50.767Z,101578.28
2023-01-26T18:44:01.426Z,101676.25
2023-01-26T18:47:06.472Z,101683.88
2023-01-26T18:50:11.742Z,101583.00
2023-01-26T18:53:23.468Z,101568.41
2023-01-26T18:56:28.271Z,101656.59
2023-01-26T18:59:32.752Z,101655.56
2023-01-26T19:02:39.017Z,101650.09
2023-01-26T19:05:43.361Z,101589.50
2023-01-26T19:08:49.763Z,101643.13
2023-01-26T19:11:54.225Z,101598.22
2023-01-26T19:14:58.819Z,101628.19
2023-01-26T19:18:04.174Z,101638.06
2023-01-26T19:21:08.227Z,101660.03
2023-01-26T19:24:12.764Z,101627.94
2023-01-26T19:27:17.518Z,101655.75
2023-01-26T19:30:22.626Z,101642.41
2023-01-26T19:33:29.059Z,101617.25
2023-01-26T19:36:34.946Z,101660.63
2023-01-26T19:39:39.481Z,101644.13
2023-01-26T19:42:44.105Z,101613.97
2023-01-26T19:45:50.542Z,101641.28
2023-01-26T19:48:54.562Z,101583.59
2023-01-26T19:51:58.954Z,101626.44
2023-01-26T19:55:03.085Z,101609.31
2023-01-26T19:58:07.381Z,101636.47
2023-01-26T20:01:13.525Z,101652.03
2023-01-26T20:04:17.707Z,101633.16
2023-01-26T20:07:22.340Z,101570.44
2023-01-26T20:10:26.417Z,101618.66
2023-01-26T20:13:33.657Z,101620.66
2023-01-26T20:16:38.620Z,101606.69
2023-01-26T20:19:43.182Z,101584.25
2023-01-26T20:22:47.135Z,101620.50
2023-01-26T20:25:52.544Z,101582.16
2023-01-26T20:28:58.437Z,101584.16
2023-01-26T20:32:03.867Z,101610.25
2023-01-26T20:35:09.993Z,101535.13
2023-01-26T20:38:14.646Z,101607.72
2023-01-26T20:41:21.984Z,101597.81
2023-01-26T20:44:26.535Z,101605.16
2023-01-26T20:47:33.622Z,101603.94
2023-01-26T20:50:41.005Z,101598.38
2023-01-26T20:53:47.218Z,101609.25
2023-01-26T20:56:52.199Z,101600.25
2023-01-26T20:59:56.613Z,101606.63
2023-01-26T21:03:42.426Z,101510.31
2023-01-26T21:06:57.724Z,101597.16
2023-01-26T21:10:01.826Z,101610.00
2023-01-26T21:13:07.178Z,101585.78
2023-01-26T21:16:15.598Z,101382.50
2023-01-26T21:19:22.283Z,101569.09
2023-01-26T21:22:26.268Z,101562.84
2023-01-26T21:25:32.887Z,101572.31
2023-01-26T21:28:38.370Z,101565.47
2023-01-26T21:31:43.123Z,101559.72
2023-01-26T21:35:18.868Z,101561.69
2023-01-26T21:38:55.841Z,101566.13
2023-01-26T21:42:03.236Z,101559.84
2023-01-26T21:45:26.656Z,101491.19
2023-01-26T21:48:36.648Z,101554.88
2023-01-26T21:52:12.561Z,101504.19
2023-01-26T21:55:20.816Z,101558.31
2023-01-26T21:58:43.391Z,101541.56
2023-01-26T22:01:55.730Z,101560.91
2023-01-26T22:05:03.069Z,101548.75
2023-01-26T22:08:08.699Z,101512.22
2023-01-26T22:11:15.387Z,101554.97
2023-01-26T22:14:22.397Z,101561.91
2023-01-26T22:17:26.327Z,101563.72
2023-01-26T22:20:31.000Z,101521.97
2023-01-26T22:23:40.083Z,101558.84
2023-01-26T22:26:44.372Z,101521.19
2023-01-26T22:29:48.601Z,101497.16
2023-01-26T22:32:52.991Z,101448.78
2023-01-26T22:36:01.983Z,101559.59
2023-01-26T22:39:06.152Z,101451.75
2023-01-26T22:42:10.356Z,101509.19
2023-01-26T22:45:15.402Z,101531.38
2023-01-26T22:48:20.033Z,101535.66
2023-01-26T22:51:26.848Z,101490.16
2023-01-26T22:54:31.192Z,101506.78
2023-01-26T22:57:35.081Z,101522.28
2023-01-26T23:00:40.092Z,101535.13
2023-01-26T23:03:46.492Z,101509.22
2023-01-26T23:06:50.494Z,101511.25
2023-01-26T23:09:54.814Z,101527.72
2023-01-26T23:13:02.638Z,101462.47
2023-01-26T23:16:07.709Z,101519.13
2023-01-26T23:19:11.618Z,101495.84
2023-01-26T23:22:15.564Z,101493.16
2023-01-26T23:25:38.192Z,101516.44
2023-01-26T23:28:45.071Z,101509.28
2023-01-26T23:31:49.630Z,101501.34
2023-01-26T23:34:54.247Z,101502.50
2023-01-26T23:37:58.961Z,101477.47
2023-01-26T23:41:05.194Z,101499.56
2023-01-26T23:44:10.327Z,101491.94
2023-01-26T23:47:14.553Z,101489.75
2023-01-26T23:50:19.181Z,101510.91
2023-01-26T23:53:24.915Z,101503.34
2023-01-26T23:56:29.654Z,101516.97
2023-01-26T23:59:34.188Z,101342.66
